sensor_id;sensor_type;location;lat;lon;timestamp;pressure;altitude;pressure_sealevel;temperature;humidity
60049;BME280;66154;45.544;6.756;2024-03-29T00:02:27;85809.44;;;3.01;54.64
60049;BME280;66154;45.544;6.756;2024-03-29T00:07:27;85817.56;;;3.03;55.25
60049;BME280;66154;45.544;6.756;2024-03-29T00:12:29;85810.72;;;3.09;54.95
60049;BME280;66154;45.544;6.756;2024-03-29T00:17:30;85821.31;;;3.18;55.55
60049;BME280;66154;45.544;6.756;2024-03-29T00:22:30;85815.44;;;3.30;54.88
60049;BME280;66154;45.544;6.756;2024-03-29T00:27:30;85809.38;;;3.36;54.41
60049;BME280;66154;45.544;6.756;2024-03-29T00:32:32;85808.88;;;3.41;55.94
60049;BME280;66154;45.544;6.756;2024-03-29T00:37:33;85822.44;;;3.49;56.14
60049;BME280;66154;45.544;6.756;2024-03-29T00:42:34;85827.97;;;3.51;57.33
60049;BME280;66154;45.544;6.756;2024-03-29T00:47:35;85833.41;;;3.56;54.57
60049;BME280;66154;45.544;6.756;2024-03-29T00:52:36;85824.38;;;3.61;55.77
60049;BME280;66154;45.544;6.756;2024-03-29T00:57:36;85821.38;;;3.62;56.80
60049;BME280;66154;45.544;6.756;2024-03-29T01:02:37;85825.13;;;3.61;57.08
60049;BME280;66154;45.544;6.756;2024-03-29T01:07:40;85817.00;;;3.59;56.00
60049;BME280;66154;45.544;6.756;2024-03-29T01:12:41;85814.06;;;3.57;56.14
60049;BME280;66154;45.544;6.756;2024-03-29T01:17:41;85811.47;;;3.57;55.79
60049;BME280;66154;45.544;6.756;2024-03-29T01:22:42;85797.34;;;3.58;56.24
60049;BME280;66154;45.544;6.756;2024-03-29T01:27:42;85780.28;;;3.57;55.44
60049;BME280;66154;45.544;6.756;2024-03-29T01:32:43;85792.47;;;3.60;55.16
60049;BME280;66154;45.544;6.756;2024-03-29T01:37:43;85786.88;;;3.62;55.29
60049;BME280;66154;45.544;6.756;2024-03-29T01:42:44;85788.56;;;3.68;56.42
60049;BME280;66154;45.544;6.756;2024-03-29T01:47:45;85797.41;;;3.71;55.90
60049;BME280;66154;45.544;6.756;2024-03-29T01:52:46;85794.16;;;3.67;54.91
60049;BME280;66154;45.544;6.756;2024-03-29T01:57:48;85791.97;;;3.65;55.73
60049;BME280;66154;45.544;6.756;2024-03-29T02:02:49;85791.25;;;3.65;54.81
60049;BME280;66154;45.544;6.756;2024-03-29T02:07:50;85764.03;;;3.69;56.77
60049;BME280;66154;45.544;6.756;2024-03-29T02:12:51;85766.44;;;3.77;59.18
60049;BME280;66154;45.544;6.756;2024-03-29T02:17:51;85756.59;;;3.84;55.78
60049;BME280;66154;45.544;6.756;2024-03-29T02:23:01;85768.16;;;3.83;56.40
60049;BME280;66154;45.544;6.756;2024-03-29T02:28:03;85769.78;;;3.77;54.40
60049;BME280;66154;45.544;6.756;2024-03-29T02:33:04;85768.56;;;3.82;54.62
60049;BME280;66154;45.544;6.756;2024-03-29T02:38:04;85766.91;;;3.88;55.31
60049;BME280;66154;45.544;6.756;2024-03-29T02:43:05;85759.59;;;3.99;54.63
60049;BME280;66154;45.544;6.756;2024-03-29T02:48:06;85746.38;;;4.06;55.94
60049;BME280;66154;45.544;6.756;2024-03-29T02:53:06;85724.78;;;4.09;55.35
60049;BME280;66154;45.544;6.756;2024-03-29T02:58:07;85731.00;;;4.11;54.98
60049;BME280;66154;45.544;6.756;2024-03-29T03:03:07;85725.63;;;4.18;54.55
60049;BME280;66154;45.544;6.756;2024-03-29T03:08:08;85736.25;;;4.24;54.67
60049;BME280;66154;45.544;6.756;2024-03-29T03:13:28;85718.84;;;4.21;56.17
60049;BME280;66154;45.544;6.756;2024-03-29T03:18:29;85720.81;;;4.17;56.66
60049;BME280;66154;45.544;6.756;2024-03-29T03:23:29;85707.13;;;4.16;55.42
60049;BME280;66154;45.544;6.756;2024-03-29T03:28:30;85712.53;;;4.22;54.51
60049;BME280;66154;45.544;6.756;2024-03-29T03:33:30;85698.50;;;4.32;56.31
60049;BME280;66154;45.544;6.756;2024-03-29T03:38:31;85705.78;;;4.37;54.83
60049;BME280;66154;45.544;6.756;2024-03-29T03:43:33;85696.00;;;4.41;55.49
60049;BME280;66154;45.544;6.756;2024-03-29T03:48:33;85680.28;;;4.44;55.48
60049;BME280;66154;45.544;6.756;2024-03-29T03:53:34;85669.78;;;4.48;55.69
60049;BME280;66154;45.544;6.756;2024-03-29T03:58:34;85673.00;;;4.52;55.66
60049;BME280;66154;45.544;6.756;2024-03-29T04:03:34;85668.84;;;4.54;55.43
60049;BME280;66154;45.544;6.756;2024-03-29T04:08:35;85680.28;;;4.57;56.36
60049;BME280;66154;45.544;6.756;2024-03-29T04:13:35;85657.09;;;4.63;55.06
60049;BME280;66154;45.544;6.756;2024-03-29T04:18:38;85642.19;;;4.63;55.17
60049;BME280;66154;45.544;6.756;2024-03-29T04:23:39;85636.78;;;4.70;55.29
60049;BME280;66154;45.544;6.756;2024-03-29T04:28:39;85646.34;;;4.73;55.57
60049;BME280;66154;45.544;6.756;2024-03-29T04:33:40;85642.31;;;4.72;55.17
60049;BME280;66154;45.544;6.756;2024-03-29T04:38:40;85646.34;;;4.73;55.93
60049;BME280;66154;45.544;6.756;2024-03-29T04:43:42;85640.41;;;4.73;56.06
60049;BME280;66154;45.544;6.756;2024-03-29T04:48:43;85630.44;;;4.71;55.01
60049;BME280;66154;45.544;6.756;2024-03-29T04:53:46;85638.03;;;4.78;55.48
60049;BME280;66154;45.544;6.756;2024-03-29T04:58:46;85640.84;;;4.84;55.40
60049;BME280;66154;45.544;6.756;2024-03-29T05:03:47;85649.97;;;4.88;54.94
60049;BME280;66154;45.544;6.756;2024-03-29T05:08:47;85659.75;;;4.97;55.90
60049;BME280;66154;45.544;6.756;2024-03-29T05:13:48;85646.75;;;4.97;54.85
60049;BME280;66154;45.544;6.756;2024-03-29T05:18:49;85659.22;;;5.02;58.07
60049;BME280;66154;45.544;6.756;2024-03-29T05:23:49;85667.47;;;5.00;54.79
60049;BME280;66154;45.544;6.756;2024-03-29T05:28:50;85654.88;;;4.99;55.61
60049;BME280;66154;45.544;6.756;2024-03-29T05:33:50;85686.13;;;4.99;56.95
60049;BME280;66154;45.544;6.756;2024-03-29T05:38:51;85696.72;;;5.04;57.35
60049;BME280;66154;45.544;6.756;2024-03-29T05:43:51;85682.97;;;5.04;56.91
60049;BME280;66154;45.544;6.756;2024-03-29T05:48:52;85698.59;;;5.04;55.40
60049;BME280;66154;45.544;6.756;2024-03-29T05:53:53;85694.75;;;5.08;57.52
60049;BME280;66154;45.544;6.756;2024-03-29T05:58:53;85719.44;;;5.16;58.29
60049;BME280;66154;45.544;6.756;2024-03-29T06:03:54;85698.16;;;5.18;56.22
60049;BME280;66154;45.544;6.756;2024-03-29T06:08:56;85705.56;;;5.19;59.30
60049;BME280;66154;45.544;6.756;2024-03-29T06:13:57;85719.63;;;5.22;59.45
60049;BME280;66154;45.544;6.756;2024-03-29T06:18:57;85716.91;;;5.25;55.58
60049;BME280;66154;45.544;6.756;2024-03-29T06:23:58;85710.78;;;5.32;56.92
60049;BME280;66154;45.544;6.756;2024-03-29T06:29:02;85700.53;;;5.37;56.51
60049;BME280;66154;45.544;6.756;2024-03-29T06:34:03;85721.88;;;5.45;60.99
60049;BME280;66154;45.544;6.756;2024-03-29T06:39:03;85718.63;;;5.53;57.01
60049;BME280;66154;45.544;6.756;2024-03-29T06:44:04;85751.88;;;5.62;59.46
60049;BME280;66154;45.544;6.756;2024-03-29T06:49:05;85738.72;;;5.66;59.67
60049;BME280;66154;45.544;6.756;2024-03-29T06:54:05;85735.06;;;5.76;57.69
60049;BME280;66154;45.544;6.756;2024-03-29T06:59:06;85718.84;;;5.93;56.09
60049;BME280;66154;45.544;6.756;2024-03-29T07:04:06;85727.34;;;6.06;57.96
60049;BME280;66154;45.544;6.756;2024-03-29T07:09:07;85737.00;;;6.18;58.95
60049;BME280;66154;45.544;6.756;2024-03-29T07:14:07;85738.09;;;6.30;57.65
60049;BME280;66154;45.544;6.756;2024-03-29T07:19:09;85738.50;;;6.50;63.49
60049;BME280;66154;45.544;6.756;2024-03-29T07:24:13;85743.38;;;6.61;58.81
60049;BME280;66154;45.544;6.756;2024-03-29T07:29:13;85735.72;;;6.66;58.23
60049;BME280;66154;45.544;6.756;2024-03-29T07:34:14;85750.72;;;6.75;58.04
60049;BME280;66154;45.544;6.756;2024-03-29T07:39:14;85749.47;;;6.88;56.06
60049;BME280;66154;45.544;6.756;2024-03-29T07:44:15;85746.47;;;6.99;56.65
60049;BME280;66154;45.544;6.756;2024-03-29T07:49:15;85753.50;;;7.11;58.22
60049;BME280;66154;45.544;6.756;2024-03-29T07:54:21;85750.19;;;7.19;56.27
60049;BME280;66154;45.544;6.756;2024-03-29T07:59:21;85761.84;;;7.27;57.59
60049;BME280;66154;45.544;6.756;2024-03-29T08:04:22;85775.97;;;7.39;57.72
60049;BME280;66154;45.544;6.756;2024-03-29T08:09:22;85764.81;;;7.48;57.35
60049;BME280;66154;45.544;6.756;2024-03-29T08:14:23;85790.72;;;7.64;58.68
60049;BME280;66154;45.544;6.756;2024-03-29T08:19:26;85774.03;;;7.79;55.98
60049;BME280;66154;45.544;6.756;2024-03-29T08:24:27;85771.91;;;7.96;55.98
60049;BME280;66154;45.544;6.756;2024-03-29T08:29:28;85778.19;;;8.16;59.17
60049;BME280;66154;45.544;6.756;2024-03-29T08:34:28;85785.38;;;8.25;57.29
60049;BME280;66154;45.544;6.756;2024-03-29T08:39:34;85794.38;;;8.33;55.73
60049;BME280;66154;45.544;6.756;2024-03-29T08:44:35;85799.47;;;8.46;59.33
60049;BME280;66154;45.544;6.756;2024-03-29T08:49:36;85782.16;;;8.57;57.42
60049;BME280;66154;45.544;6.756;2024-03-29T08:54:36;85778.22;;;8.71;56.43
60049;BME280;66154;45.544;6.756;2024-03-29T08:59:37;85779.38;;;8.88;56.57
60049;BME280;66154;45.544;6.756;2024-03-29T09:04:37;85774.81;;;9.06;59.98
60049;BME280;66154;45.544;6.756;2024-03-29T09:09:38;85780.94;;;9.22;58.77
60049;BME280;66154;45.544;6.756;2024-03-29T09:14:41;85759.88;;;9.40;57.65
60049;BME280;66154;45.544;6.756;2024-03-29T09:19:42;85771.06;;;9.58;56.57
60049;BME280;66154;45.544;6.756;2024-03-29T09:24:42;85770.09;;;9.79;57.12
60049;BME280;66154;45.544;6.756;2024-03-29T09:29:43;85765.47;;;9.98;56.36
60049;BME280;66154;45.544;6.756;2024-03-29T09:34:47;85758.22;;;10.17;55.64
60049;BME280;66154;45.544;6.756;2024-03-29T09:39:48;85769.38;;;10.35;54.91
60049;BME280;66154;45.544;6.756;2024-03-29T09:44:50;85764.25;;;10.55;54.51
60049;BME280;66154;45.544;6.756;2024-03-29T09:49:51;85749.47;;;10.81;55.45
60049;BME280;66154;45.544;6.756;2024-03-29T09:54:55;85773.88;;;11.11;55.63
60049;BME280;66154;45.544;6.756;2024-03-29T09:59:56;85775.34;;;11.27;50.62
60049;BME280;66154;45.544;6.756;2024-03-29T10:04:57;85776.25;;;11.38;51.30
60049;BME280;66154;45.544;6.756;2024-03-29T10:09:59;85766.44;;;11.53;54.68
60049;BME280;66154;45.544;6.756;2024-03-29T10:15:00;85754.75;;;11.69;48.75
60049;BME280;66154;45.544;6.756;2024-03-29T10:20:09;85754.66;;;11.78;51.45
60049;BME280;66154;45.544;6.756;2024-03-29T10:25:13;85738.75;;;11.87;48.80
60049;BME280;66154;45.544;6.756;2024-03-29T10:30:15;85761.44;;;11.99;53.59
60049;BME280;66154;45.544;6.756;2024-03-29T10:35:19;85758.94;;;12.10;55.58
60049;BME280;66154;45.544;6.756;2024-03-29T10:40:21;85750.66;;;12.17;52.93
60049;BME280;66154;45.544;6.756;2024-03-29T10:45:22;85758.44;;;12.26;55.11
60049;BME280;66154;45.544;6.756;2024-03-29T10:50:24;85767.22;;;12.38;51.37
60049;BME280;66154;45.544;6.756;2024-03-29T10:55:28;85753.66;;;12.45;52.79
60049;BME280;66154;45.544;6.756;2024-03-29T11:00:41;85756.16;;;12.54;50.04
60049;BME280;66154;45.544;6.756;2024-03-29T11:05:50;85756.28;;;12.65;52.81
60049;BME280;66154;45.544;6.756;2024-03-29T11:10:54;85754.75;;;12.78;53.82
60049;BME280;66154;45.544;6.756;2024-03-29T11:15:56;85756.34;;;12.91;51.06
60049;BME280;66154;45.544;6.756;2024-03-29T11:21:00;85746.63;;;13.02;53.34
60049;BME280;66154;45.544;6.756;2024-03-29T11:26:02;85774.31;;;13.07;50.14
60049;BME280;66154;45.544;6.756;2024-03-29T11:31:05;85765.50;;;13.15;52.87
60049;BME280;66154;45.544;6.756;2024-03-29T11:36:23;85749.94;;;13.17;50.21
60049;BME280;66154;45.544;6.756;2024-03-29T11:41:25;85754.56;;;13.22;52.91
60049;BME280;66154;45.544;6.756;2024-03-29T11:46:27;85745.03;;;13.30;49.21
60049;BME280;66154;45.544;6.756;2024-03-29T11:51:30;85740.06;;;13.38;52.03
60049;BME280;66154;45.544;6.756;2024-03-29T11:56:31;85741.16;;;13.51;47.79
60049;BME280;66154;45.544;6.756;2024-03-29T12:01:32;85743.34;;;13.58;53.42
60049;BME280;66154;45.544;6.756;2024-03-29T12:06:34;85730.03;;;13.73;52.09
60049;BME280;66154;45.544;6.756;2024-03-29T12:11:34;85739.22;;;13.83;50.68
60049;BME280;66154;45.544;6.756;2024-03-29T12:16:43;85727.03;;;13.91;54.54
60049;BME280;66154;45.544;6.756;2024-03-29T12:21:44;85740.34;;;14.08;51.82
60049;BME280;66154;45.544;6.756;2024-03-29T12:26:44;85723.13;;;14.18;51.80
60049;BME280;66154;45.544;6.756;2024-03-29T12:31:58;85696.28;;;14.25;46.31
60049;BME280;66154;45.544;6.756;2024-03-29T12:36:58;85706.13;;;14.24;54.33
60049;BME280;66154;45.544;6.756;2024-03-29T12:41:59;85685.66;;;14.19;48.97
60049;BME280;66154;45.544;6.756;2024-03-29T12:47:01;85717.81;;;14.12;52.66
60049;BME280;66154;45.544;6.756;2024-03-29T12:52:01;85672.84;;;14.01;52.20
60049;BME280;66154;45.544;6.756;2024-03-29T12:57:02;85686.72;;;13.96;50.06
60049;BME280;66154;45.544;6.756;2024-03-29T13:02:03;85672.94;;;14.23;52.90
60049;BME280;66154;45.544;6.756;2024-03-29T13:07:04;85683.22;;;14.58;50.52
60049;BME280;66154;45.544;6.756;2024-03-29T13:12:04;85697.94;;;14.70;53.25
60049;BME280;66154;45.544;6.756;2024-03-29T13:17:06;85674.06;;;14.48;51.47
60049;BME280;66154;45.544;6.756;2024-03-29T13:22:06;85671.59;;;14.39;51.51
60049;BME280;66154;45.544;6.756;2024-03-29T13:27:07;85684.13;;;14.38;51.05
60049;BME280;66154;45.544;6.756;2024-03-29T13:32:08;85687.97;;;14.43;54.13
60049;BME280;66154;45.544;6.756;2024-03-29T13:37:08;85684.13;;;14.38;49.01
60049;BME280;66154;45.544;6.756;2024-03-29T13:42:09;85692.69;;;14.28;53.94
60049;BME280;66154;45.544;6.756;2024-03-29T13:47:09;85695.78;;;14.21;52.92
60049;BME280;66154;45.544;6.756;2024-03-29T13:52:16;85688.28;;;14.19;50.19
60049;BME280;66154;45.544;6.756;2024-03-29T13:57:16;85697.44;;;14.18;51.69
60049;BME280;66154;45.544;6.756;2024-03-29T14:02:18;85675.25;;;14.05;52.17
60049;BME280;66154;45.544;6.756;2024-03-29T14:07:19;85682.16;;;13.97;50.65
60049;BME280;66154;45.544;6.756;2024-03-29T14:12:20;85670.59;;;13.94;46.89
60049;BME280;66154;45.544;6.756;2024-03-29T14:17:21;85643.72;;;13.90;46.26
60049;BME280;66154;45.544;6.756;2024-03-29T14:22:22;85654.28;;;13.90;43.89
60049;BME280;66154;45.544;6.756;2024-03-29T14:27:23;85646.88;;;14.00;40.48
60049;BME280;66154;45.544;6.756;2024-03-29T14:32:25;85650.09;;;14.15;50.46
60049;BME280;66154;45.544;6.756;2024-03-29T14:37:25;85677.94;;;14.16;48.81
60049;BME280;66154;45.544;6.756;2024-03-29T14:42:26;85664.44;;;14.03;50.74
60049;BME280;66154;45.544;6.756;2024-03-29T14:47:27;85680.97;;;13.98;51.45
60049;BME280;66154;45.544;6.756;2024-03-29T14:52:28;85683.41;;;14.01;47.77
60049;BME280;66154;45.544;6.756;2024-03-29T14:57:28;85670.50;;;14.14;46.88
60049;BME280;66154;45.544;6.756;2024-03-29T15:02:29;85674.41;;;14.24;46.90
60049;BME280;66154;45.544;6.756;2024-03-29T15:07:29;85660.84;;;14.48;46.06
60049;BME280;66154;45.544;6.756;2024-03-29T15:12:30;85681.59;;;14.77;48.42
60049;BME280;66154;45.544;6.756;2024-03-29T15:17:30;85687.41;;;14.87;42.27
60049;BME280;66154;45.544;6.756;2024-03-29T15:22:31;85676.31;;;14.77;46.60
60049;BME280;66154;45.544;6.756;2024-03-29T15:27:32;85679.66;;;14.67;51.32
60049;BME280;66154;45.544;6.756;2024-03-29T15:32:51;85683.56;;;14.82;44.49
60049;BME280;66154;45.544;6.756;2024-03-29T15:37:52;85670.06;;;14.75;46.67
60049;BME280;66154;45.544;6.756;2024-03-29T15:42:52;85694.31;;;14.62;51.93
60049;BME280;66154;45.544;6.756;2024-03-29T15:47:52;85716.31;;;14.42;48.45
60049;BME280;66154;45.544;6.756;2024-03-29T15:52:53;85708.72;;;14.13;47.31
60049;BME280;66154;45.544;6.756;2024-03-29T15:57:54;85739.69;;;13.82;45.75
60049;BME280;66154;45.544;6.756;2024-03-29T16:02:54;85744.97;;;13.50;44.87
60049;BME280;66154;45.544;6.756;2024-03-29T16:07:55;85740.97;;;13.35;49.64
60049;BME280;66154;45.544;6.756;2024-03-29T16:12:55;85726.09;;;13.32;49.91
60049;BME280;66154;45.544;6.756;2024-03-29T16:17:58;85745.78;;;13.36;48.45
60049;BME280;66154;45.544;6.756;2024-03-29T16:22:59;85736.00;;;13.42;49.11
60049;BME280;66154;45.544;6.756;2024-03-29T16:27:59;85743.88;;;13.37;48.06
60049;BME280;66154;45.544;6.756;2024-03-29T16:33:00;85762.69;;;13.19;45.58
60049;BME280;66154;45.544;6.756;2024-03-29T16:38:01;85756.88;;;12.95;47.94
60049;BME280;66154;45.544;6.756;2024-03-29T16:43:02;85761.16;;;12.72;48.47
60049;BME280;66154;45.544;6.756;2024-03-29T16:48:03;85752.16;;;12.58;49.17
60049;BME280;66154;45.544;6.756;2024-03-29T16:53:04;85764.19;;;12.45;50.58
60049;BME280;66154;45.544;6.756;2024-03-29T16:58:04;85770.91;;;12.26;49.97
60049;BME280;66154;45.544;6.756;2024-03-29T17:03:05;85768.28;;;12.11;50.89
60049;BME280;66154;45.544;6.756;2024-03-29T17:08:06;85772.78;;;12.05;51.45
60049;BME280;66154;45.544;6.756;2024-03-29T17:13:06;85774.25;;;11.92;48.63
60049;BME280;66154;45.544;6.756;2024-03-29T17:18:06;85777.97;;;11.85;50.54
60049;BME280;66154;45.544;6.756;2024-03-29T17:23:07;85791.88;;;11.85;50.32
60049;BME280;66154;45.544;6.756;2024-03-29T17:28:07;85790.31;;;11.79;44.77
60049;BME280;66154;45.544;6.756;2024-03-29T17:33:08;85803.88;;;11.72;49.36
60049;BME280;66154;45.544;6.756;2024-03-29T17:38:09;85797.50;;;11.64;49.11
60049;BME280;66154;45.544;6.756;2024-03-29T17:43:09;85802.13;;;11.54;49.28
60049;BME280;66154;45.544;6.756;2024-03-29T17:48:10;85816.09;;;11.46;47.71
60049;BME280;66154;45.544;6.756;2024-03-29T17:53:10;85810.63;;;11.35;48.14
60049;BME280;66154;45.544;6.756;2024-03-29T17:58:11;85823.59;;;11.24;47.14
60049;BME280;66154;45.544;6.756;2024-03-29T18:03:11;85821.50;;;11.13;46.58
60049;BME280;66154;45.544;6.756;2024-03-29T18:08:12;85817.16;;;11.10;48.09
60049;BME280;66154;45.544;6.756;2024-03-29T18:13:12;85813.50;;;11.08;48.79
60049;BME280;66154;45.544;6.756;2024-03-29T18:18:15;85800.25;;;11.02;41.84
60049;BME280;66154;45.544;6.756;2024-03-29T18:23:16;85804.41;;;10.94;48.42
60049;BME280;66154;45.544;6.756;2024-03-29T18:28:17;85801.13;;;10.84;47.37
60049;BME280;66154;45.544;6.756;2024-03-29T18:33:17;85791.28;;;10.70;47.74
60049;BME280;66154;45.544;6.756;2024-03-29T18:38:18;85795.59;;;10.59;48.87
60049;BME280;66154;45.544;6.756;2024-03-29T18:43:18;85819.03;;;10.48;48.60
60049;BME280;66154;45.544;6.756;2024-03-29T18:48:19;85807.31;;;10.34;50.26
60049;BME280;66154;45.544;6.756;2024-03-29T18:53:20;85808.81;;;10.26;49.66
60049;BME280;66154;45.544;6.756;2024-03-29T18:58:20;85803.28;;;10.24;48.03
60049;BME280;66154;45.544;6.756;2024-03-29T19:03:25;85823.00;;;10.20;50.16
60049;BME280;66154;45.544;6.756;2024-03-29T19:08:25;85828.28;;;10.11;49.22
60049;BME280;66154;45.544;6.756;2024-03-29T19:13:26;85832.41;;;10.02;48.52
60049;BME280;66154;45.544;6.756;2024-03-29T19:18:26;85827.44;;;9.95;45.43
60049;BME280;66154;45.544;6.756;2024-03-29T19:23:27;85825.41;;;9.99;48.99
60049;BME280;66154;45.544;6.756;2024-03-29T19:28:28;85820.66;;;9.89;49.13
60049;BME280;66154;45.544;6.756;2024-03-29T19:33:28;85826.53;;;9.75;44.55
60049;BME280;66154;45.544;6.756;2024-03-29T19:38:29;85822.16;;;9.72;47.34
60049;BME280;66154;45.544;6.756;2024-03-29T19:43:29;85818.69;;;9.66;47.58
60049;BME280;66154;45.544;6.756;2024-03-29T19:48:32;85822.06;;;9.57;49.55
60049;BME280;66154;45.544;6.756;2024-03-29T19:53:33;85800.81;;;9.46;49.09
60049;BME280;66154;45.544;6.756;2024-03-29T19:58:34;85822.25;;;9.36;49.50
60049;BME280;66154;45.544;6.756;2024-03-29T20:03:35;85824.63;;;9.25;49.33
60049;BME280;66154;45.544;6.756;2024-03-29T20:08:35;85812.38;;;9.12;48.70
60049;BME280;66154;45.544;6.756;2024-03-29T20:13:37;85824.63;;;9.06;47.82
60049;BME280;66154;45.544;6.756;2024-03-29T20:18:37;85810.94;;;9.02;49.62
60049;BME280;66154;45.544;6.756;2024-03-29T20:23:38;85813.88;;;8.95;50.30
60049;BME280;66154;45.544;6.756;2024-03-29T20:28:38;85817.38;;;8.83;49.90
60049;BME280;66154;45.544;6.756;2024-03-29T20:33:39;85812.72;;;8.78;49.46
60049;BME280;66154;45.544;6.756;2024-03-29T20:38:39;85828.75;;;8.71;50.41
60049;BME280;66154;45.544;6.756;2024-03-29T20:43:40;85809.25;;;8.63;50.36
60049;BME280;66154;45.544;6.756;2024-03-29T20:48:40;85817.94;;;8.60;50.42
60049;BME280;66154;45.544;6.756;2024-03-29T20:53:41;85825.22;;;8.56;49.74
60049;BME280;66154;45.544;6.756;2024-03-29T20:58:41;85822.03;;;8.52;50.20
60049;BME280;66154;45.544;6.756;2024-03-29T21:03:42;85806.16;;;8.47;47.99
60049;BME280;66154;45.544;6.756;2024-03-29T21:09:01;85828.28;;;8.46;50.12
60049;BME280;66154;45.544;6.756;2024-03-29T21:14:01;85816.03;;;8.43;48.66
60049;BME280;66154;45.544;6.756;2024-03-29T21:19:02;85828.88;;;8.41;50.23
60049;BME280;66154;45.544;6.756;2024-03-29T21:24:07;85817.22;;;8.42;49.21
60049;BME280;66154;45.544;6.756;2024-03-29T21:29:08;85842.38;;;8.39;49.81
60049;BME280;66154;45.544;6.756;2024-03-29T21:34:08;85834.81;;;8.32;49.87
60049;BME280;66154;45.544;6.756;2024-03-29T21:39:09;85834.97;;;8.29;49.64
60049;BME280;66154;45.544;6.756;2024-03-29T21:44:09;85874.97;;;8.29;50.66
60049;BME280;66154;45.544;6.756;2024-03-29T21:49:10;85852.84;;;8.30;50.55
60049;BME280;66154;45.544;6.756;2024-03-29T21:54:10;85854.88;;;8.26;49.28
60049;BME280;66154;45.544;6.756;2024-03-29T21:59:11;85862.09;;;8.22;49.18
60049;BME280;66154;45.544;6.756;2024-03-29T22:04:11;85859.78;;;8.15;49.73
60049;BME280;66154;45.544;6.756;2024-03-29T22:09:11;85843.47;;;8.11;48.92
60049;BME280;66154;45.544;6.756;2024-03-29T22:14:13;85844.75;;;8.06;50.33
60049;BME280;66154;45.544;6.756;2024-03-29T22:19:13;85842.72;;;8.01;50.17
60049;BME280;66154;45.544;6.756;2024-03-29T22:24:14;85858.88;;;8.00;49.52
60049;BME280;66154;45.544;6.756;2024-03-29T22:29:16;85834.41;;;7.94;49.29
60049;BME280;66154;45.544;6.756;2024-03-29T22:34:16;85843.13;;;7.91;49.64
60049;BME280;66154;45.544;6.756;2024-03-29T22:39:17;85845.44;;;7.89;49.47
60049;BME280;66154;45.544;6.756;2024-03-29T22:44:17;85819.56;;;7.82;49.50
60049;BME280;66154;45.544;6.756;2024-03-29T22:49:18;85821.13;;;7.79;50.11
60049;BME280;66154;45.544;6.756;2024-03-29T22:54:18;85824.75;;;7.73;48.84
60049;BME280;66154;45.544;6.756;2024-03-29T22:59:19;85813.41;;;7.67;50.30
60049;BME280;66154;45.544;6.756;2024-03-29T23:04:22;85815.44;;;7.72;47.19
60049;BME280;66154;45.544;6.756;2024-03-29T23:09:22;85813.13;;;7.74;41.33
60049;BME280;66154;45.544;6.756;2024-03-29T23:14:23;85827.84;;;7.80;49.01
60049;BME280;66154;45.544;6.756;2024-03-29T23:19:23;85834.94;;;7.80;46.13
60049;BME280;66154;45.544;6.756;2024-03-29T23:24:24;85818.81;;;7.81;50.14
60049;BME280;66154;45.544;6.756;2024-03-29T23:29:24;85810.81;;;7.85;47.66
60049;BME280;66154;45.544;6.756;2024-03-29T23:34:25;85806.78;;;7.93;47.96
60049;BME280;66154;45.544;6.756;2024-03-29T23:39:29;85797.66;;;8.06;43.75
60049;BME280;66154;45.544;6.756;2024-03-29T23:44:29;85796.94;;;8.15;47.85
60049;BME280;66154;45.544;6.756;2024-03-29T23:49:32;85801.31;;;8.18;49.95
60049;BME280;66154;45.544;6.756;2024-03-29T23:54:32;85818.66;;;8.24;43.07
60049;BME280;66154;45.544;6.756;2024-03-29T23:59:33;85818.97;;;8.27;47.81
